Time;durP1;ratioP1;P1;durP2;ratioP2;P2;SDS_P1;SDS_P2;PMS_P1;PMS_P2;Temp;Humidity;BMP_temperature;BMP_pressure;BME280_temperature;BME280_humidity;BME280_pressure;Samples;Min_cycle;Max_cycle;Signal;HPM_P1;HPM_P2
2021/08/02 00:00:54;;;;;;;6.27;5.67;;;;;;;30.13;49.19;100054.17;128914;1084;64099;-84
2021/08/02 00:03:54;;;;;;;6.53;5.43;;;;;;;30.13;49.04;100043.28;128478;1084;64153;-85
2021/08/02 00:06:22;;;;;;;7.07;5.77;;;;;;;30.12;49.31;100050.62;128196;1084;64134;-83
2021/08/02 00:09:05;;;;;;;7.33;6.23;;;;;;;30.13;48.88;100052.31;128537;1084;64136;-84
2021/08/02 00:11:49;;;;;;;7.37;5.87;;;;;;;30.14;48.74;100048.56;128935;1084;64099;-84
2021/08/02 00:14:15;;;;;;;9.03;6.07;;;;;;;30.12;48.74;100042.45;128489;1084;64135;-84
2021/08/02 00:16:41;;;;;;;6.63;6.00;;;;;;;30.13;48.86;100054.17;128920;1084;64102;-84
2021/08/02 00:19:10;;;;;;;6.63;5.73;;;;;;;30.13;49.11;100046.01;128461;1084;64099;-84
2021/08/02 00:21:37;;;;;;;7.57;6.03;;;;;;;30.13;49.13;100043.28;128538;1084;64166;-83
2021/08/02 00:24:03;;;;;;;6.77;6.07;;;;;;;30.12;48.95;100039.73;128516;1084;64157;-84
2021/08/02 00:26:30;;;;;;;7.30;6.23;;;;;;;30.13;49.10;100046.88;128479;1084;64707;-84
2021/08/02 00:28:57;;;;;;;6.80;6.10;;;;;;;30.14;49.35;100048.56;128505;1084;64130;-84
2021/08/02 00:31:24;;;;;;;7.28;6.23;;;;;;;30.14;49.28;100036.81;128541;1084;64196;-84
2021/08/02 00:33:51;;;;;;;6.73;6.03;;;;;;;30.13;48.88;100051.45;128468;1083;64128;-84
2021/08/02 00:36:40;;;;;;;6.93;6.10;;;;;;;30.13;49.36;100038.70;128491;1084;64133;-84
2021/08/02 00:39:11;;;;;;;7.00;6.07;;;;;;;30.14;48.85;100042.26;128891;1084;64237;-84
2021/08/02 00:41:53;;;;;;;6.35;5.70;;;;;;;30.13;49.09;100035.13;128922;1084;64192;-83
2021/08/02 00:44:41;;;;;;;6.97;6.00;;;;;;;30.11;48.85;100038.03;128745;1083;64194;-82
2021/08/02 00:47:11;;;;;;;6.95;5.88;;;;;;;30.12;49.10;100036.18;128284;1084;64239;-81
2021/08/02 00:49:39;;;;;;;6.97;6.10;;;;;;;30.12;49.34;100033.45;128422;1082;64128;-84
2021/08/02 00:52:06;;;;;;;8.67;6.07;;;;;;;30.12;48.93;100042.45;128456;1084;64131;-84
2021/08/02 00:54:32;;;;;;;6.60;5.90;;;;;;;30.13;48.89;100037.84;128424;1084;64215;-84
2021/08/02 00:57:02;;;;;;;6.67;5.50;;;;;;;30.13;48.91;100038.70;128372;1084;64128;-84
2021/08/02 00:59:32;;;;;;;7.00;6.23;;;;;;;30.13;48.89;100037.84;128466;1082;64125;-85
2021/08/02 01:01:58;;;;;;;6.70;5.70;;;;;;;30.13;49.06;100040.56;128506;1084;64128;-84
2021/08/02 01:04:28;;;;;;;7.80;5.87;;;;;;;30.14;48.98;100039.53;128507;1084;64131;-84
2021/08/02 01:06:54;;;;;;;6.70;6.07;;;;;;;30.14;48.90;100034.09;128461;1082;64133;-86
2021/08/02 01:09:21;;;;;;;6.50;5.90;;;;;;;30.12;48.86;100026.13;128492;1082;64131;-84
2021/08/02 01:11:51;;;;;;;7.77;5.93;;;;;;;30.13;49.05;100029.67;128940;1084;64137;-85
2021/08/02 01:14:17;;;;;;;6.80;6.10;;;;;;;30.11;49.37;100029.04;128492;1084;64135;-84
2021/08/02 01:16:44;;;;;;;7.27;5.77;;;;;;;30.11;49.31;100024.42;128458;1084;64131;-83
2021/08/02 01:19:10;;;;;;;6.80;5.83;;;;;;;30.12;48.92;100028.02;128449;1083;64409;-84
2021/08/02 01:21:38;;;;;;;6.10;5.50;;;;;;;30.11;48.97;100021.70;128521;1084;64193;-84
2021/08/02 01:24:11;;;;;;;7.38;5.83;;;;;;;30.11;49.04;100015.43;128508;1083;64013;-84
2021/08/02 01:26:43;;;;;;;6.67;5.93;;;;;;;30.10;49.32;100020.04;128473;1083;64128;-84
2021/08/02 01:29:48;;;;;;;6.77;6.07;;;;;;;30.10;49.01;100017.32;128891;1084;64143;-84
2021/08/02 01:32:16;;;;;;;7.23;5.97;;;;;;;30.09;49.42;100019.17;128910;1084;64135;-85
2021/08/02 01:34:42;;;;;;;7.23;6.20;;;;;;;30.09;48.97;100023.79;128487;1084;63923;-85
2021/08/02 01:37:12;;;;;;;6.33;5.67;;;;;;;30.09;49.35;100019.17;128485;1084;64125;-84
2021/08/02 01:39:43;;;;;;;6.60;5.90;;;;;;;30.09;49.46;100018.34;128502;1084;64096;-84
2021/08/02 01:42:10;;;;;;;7.53;5.77;;;;;;;30.09;48.92;100021.06;128538;1084;64170;-85
2021/08/02 01:44:36;;;;;;;6.85;6.15;;;;;;;30.09;49.11;100018.34;128907;1084;64166;-84
2021/08/02 01:47:32;;;;;;;6.93;5.67;;;;;;;30.09;49.20;100012.91;128477;1084;64102;-84
2021/08/02 01:50:06;;;;;;;7.00;6.10;;;;;;;30.08;49.42;100006.59;128455;1084;64169;-85
2021/08/02 01:52:39;;;;;;;6.60;5.77;;;;;;;30.08;49.42;100009.31;128534;1084;63936;-84
2021/08/02 01:55:25;;;;;;;6.95;5.80;;;;;;;30.09;49.44;100019.17;128900;1084;64131;-84
2021/08/02 01:58:07;;;;;;;7.60;6.20;;;;;;;30.08;49.11;100030.26;128472;1084;65322;-84
2021/08/02 02:00:40;;;;;;;7.10;5.73;;;;;;;30.09;49.43;100029.23;128449;1084;64358;-84
2021/08/02 02:03:21;;;;;;;6.90;6.20;;;;;;;30.09;49.41;100023.79;128893;1084;64131;-85
2021/08/02 02:06:00;;;;;;;7.43;5.90;;;;;;;30.07;49.48;100021.26;128484;1084;64247;-84
2021/08/02 02:08:33;;;;;;;7.00;6.07;;;;;;;30.08;49.33;100020.20;128463;1083;64100;-85
2021/08/02 02:11:01;;;;;;;6.37;5.73;;;;;;;30.08;49.22;100009.31;128461;1084;64136;-83
2021/08/02 02:13:30;;;;;;;7.63;6.13;;;;;;;30.07;49.16;100021.26;128493;1084;64115;-84
2021/08/02 02:16:01;;;;;;;7.07;5.90;;;;;;;30.08;49.07;100022.09;128464;1084;64144;-84
2021/08/02 02:18:30;;;;;;;6.67;6.00;;;;;;;30.08;49.07;100022.09;128885;1084;64424;-84
2021/08/02 02:20:58;;;;;;;7.10;6.40;;;;;;;30.08;49.45;100028.36;128475;1084;64278;-84
2021/08/02 02:23:25;;;;;;;6.90;5.90;;;;;;;30.08;49.38;100030.26;128445;1084;64144;-85
2021/08/02 02:25:51;;;;;;;7.30;6.10;;;;;;;30.08;49.27;100030.26;128435;1084;63969;-84
2021/08/02 02:28:18;;;;;;;7.20;6.20;;;;;;;30.08;49.08;100038.42;128458;1084;64133;-84
2021/08/02 02:30:45;;;;;;;8.27;6.37;;;;;;;30.08;49.52;100038.42;128501;1084;64655;-85
2021/08/02 02:33:18;;;;;;;9.83;6.00;;;;;;;30.07;49.13;100045.75;128544;1084;64208;-84
2021/08/02 02:35:45;;;;;;;7.13;5.97;;;;;;;30.07;49.42;100045.75;128477;1084;64093;-85
2021/08/02 02:38:12;;;;;;;6.97;6.07;;;;;;;30.07;49.48;100044.89;128462;1084;64221;-85
2021/08/02 02:40:39;;;;;;;7.60;6.40;;;;;;;30.07;49.23;100034.00;128489;1084;64163;-85
2021/08/02 02:43:06;;;;;;;7.07;5.90;;;;;;;30.07;49.24;100028.56;128503;1082;65006;-86
2021/08/02 02:45:34;;;;;;;6.53;5.87;;;;;;;30.07;49.00;100026.70;128520;1083;64149;-84
2021/08/02 02:48:00;;;;;;;7.13;6.43;;;;;;;30.08;49.15;100032.98;128469;1084;64133;-83
2021/08/02 02:50:27;;;;;;;7.07;6.00;;;;;;;30.06;49.09;100032.31;128476;1084;64147;-85
2021/08/02 02:52:54;;;;;;;7.00;6.20;;;;;;;30.06;49.18;100057.66;128454;1082;64209;-86
2021/08/02 02:55:21;;;;;;;7.10;5.90;;;;;;;30.06;49.57;100054.94;128489;1084;64288;-84
2021/08/02 02:57:47;;;;;;;7.60;5.90;;;;;;;30.06;49.62;100046.78;128500;1084;64147;-83
2021/08/02 03:00:13;;;;;;;6.33;5.73;;;;;;;30.06;49.33;100040.47;128464;1084;64265;-84
2021/08/02 03:02:40;;;;;;;7.00;5.90;;;;;;;30.06;49.62;100048.64;128464;1084;64127;-83
2021/08/02 03:05:07;;;;;;;6.80;5.70;;;;;;;30.06;49.16;100054.08;128913;1082;64149;-84
2021/08/02 03:07:36;;;;;;;7.70;6.03;;;;;;;30.06;49.46;100062.24;128464;1084;64282;-84
2021/08/02 03:10:02;;;;;;;6.57;5.90;;;;;;;30.05;49.05;100057.86;128880;1082;64286;-84
2021/08/02 03:12:30;;;;;;;6.73;6.03;;;;;;;30.05;49.17;100060.58;128478;1084;64177;-84
2021/08/02 03:14:57;;;;;;;6.93;5.80;;;;;;;30.04;49.65;100059.71;128504;1083;63971;-85
2021/08/02 03:17:32;;;;;;;6.27;5.67;;;;;;;30.04;49.13;100076.04;128504;1084;64128;-84
2021/08/02 03:19:59;;;;;;;7.87;5.80;;;;;;;30.03;49.23;100077.09;128462;1083;64361;-84
2021/08/02 03:22:38;;;;;;;7.17;6.20;;;;;;;30.04;49.57;100086.09;128522;1084;64124;-85
2021/08/02 03:25:32;;;;;;;7.83;6.30;;;;;;;30.02;49.49;100082.70;128486;1082;64198;-83
2021/08/02 03:28:27;;;;;;;8.77;6.63;;;;;;;30.03;49.32;100078.95;128468;1084;64150;-85
2021/08/02 03:30:59;;;;;;;9.80;6.57;;;;;;;30.01;48.85;100087.31;128928;1084;64142;-84
2021/08/02 03:33:27;;;;;;;9.80;6.90;;;;;;;30.01;49.20;100089.20;128968;1083;64275;-84
2021/08/02 03:35:54;;;;;;;10.63;6.93;;;;;;;30.00;49.09;100088.33;128893;1084;64239;-83
2021/08/02 03:38:21;;;;;;;9.43;6.97;;;;;;;30.01;49.21;100091.92;128516;1084;64087;-84
2021/08/02 03:40:48;;;;;;;10.40;7.30;;;;;;;30.01;49.05;100097.36;128890;1084;64128;-85
2021/08/02 03:43:14;;;;;;;9.70;7.33;;;;;;;30.01;48.79;100094.64;128454;1083;64294;-83
2021/08/02 03:45:40;;;;;;;8.67;6.90;;;;;;;30.00;48.89;100090.22;128347;1084;64275;-81
2021/08/02 03:48:07;;;;;;;10.07;7.73;;;;;;;30.00;48.70;100099.22;128495;1084;64121;-84
2021/08/02 03:50:33;;;;;;;10.90;7.90;;;;;;;30.00;48.82;100095.66;128459;1084;64127;-83
2021/08/02 03:53:02;;;;;;;8.73;7.33;;;;;;;30.00;48.64;100101.94;128570;1082;64373;-83
2021/08/02 03:55:30;;;;;;;10.17;7.97;;;;;;;30.00;48.34;100098.39;128496;1084;63946;-84
2021/08/02 03:57:56;;;;;;;10.43;7.30;;;;;;;30.00;48.65;100095.66;128474;1084;64172;-85
2021/08/02 04:00:23;;;;;;;13.07;8.10;;;;;;;29.99;48.18;100104.85;128492;1084;64204;-84
2021/08/02 04:02:50;;;;;;;10.00;8.47;;;;;;;29.99;48.36;100108.41;128496;1084;62943;-84
2021/08/02 04:05:19;;;;;;;10.43;7.40;;;;;;;29.99;48.25;100100.23;128489;1082;64125;-85
2021/08/02 04:07:47;;;;;;;15.73;9.30;;;;;;;29.98;48.08;100084.97;128480;1082;64113;-83
2021/08/02 04:10:17;;;;;;;11.43;8.60;;;;;;;29.98;47.88;100090.41;128296;1084;64179;-83
2021/08/02 04:12:43;;;;;;;13.30;8.90;;;;;;;29.98;47.86;100084.97;128734;1082;64262;-84
2021/08/02 04:15:10;;;;;;;11.33;8.10;;;;;;;29.98;47.86;100086.83;128275;1082;64108;-83
2021/08/02 04:17:36;;;;;;;11.13;8.03;;;;;;;29.99;47.85;100093.97;128648;1082;64089;-83
2021/08/02 04:20:06;;;;;;;10.60;8.53;;;;;;;30.00;47.84;100087.50;128308;1084;64227;-81
2021/08/02 04:22:33;;;;;;;12.00;8.30;;;;;;;30.00;47.97;100084.78;128310;1084;64153;-82
2021/08/02 04:24:59;;;;;;;11.97;8.80;;;;;;;30.00;47.72;100092.94;128443;1084;64228;-83
2021/08/02 04:27:25;;;;;;;11.97;8.53;;;;;;;30.01;48.12;100094.64;128874;1084;64298;-83
2021/08/02 04:29:51;;;;;;;13.10;9.60;;;;;;;30.01;48.12;100086.48;128471;1084;64161;-84
2021/08/02 04:32:18;;;;;;;13.07;9.07;;;;;;;30.00;48.10;100091.05;128874;1084;64138;-83
2021/08/02 04:34:44;;;;;;;12.23;9.30;;;;;;;30.00;47.62;100091.05;128480;1084;64211;-83
2021/08/02 04:37:10;;;;;;;13.90;8.50;;;;;;;30.00;47.56;100084.78;128861;1084;64142;-83
2021/08/02 04:39:38;;;;;;;11.17;8.40;;;;;;;30.00;47.67;100079.34;128511;1084;64128;-83
2021/08/02 04:42:08;;;;;;;11.47;9.40;;;;;;;30.00;47.97;100084.78;128542;1084;63979;-83
2021/08/02 04:44:34;;;;;;;11.73;9.07;;;;;;;30.00;47.64;100080.17;128514;1083;63942;-83
2021/08/02 04:47:01;;;;;;;12.03;9.40;;;;;;;30.01;47.60;100081.03;128495;1084;64162;-84
2021/08/02 04:49:27;;;;;;;11.83;9.27;;;;;;;30.00;47.66;100080.17;128526;1084;64174;-84
2021/08/02 04:51:53;;;;;;;13.23;9.43;;;;;;;30.01;47.39;100078.31;128955;1082;64137;-83
2021/08/02 04:54:20;;;;;;;11.63;9.77;;;;;;;30.01;47.61;100081.03;128471;1084;64233;-83
2021/08/02 04:56:46;;;;;;;16.70;9.83;;;;;;;30.01;47.80;100078.31;128397;1083;64150;-84
2021/08/02 04:59:13;;;;;;;12.10;9.40;;;;;;;30.00;47.25;100080.17;128504;1084;64131;-84
2021/08/02 05:01:39;;;;;;;13.40;10.23;;;;;;;30.01;47.25;100092.75;128481;1084;64203;-84
2021/08/02 05:04:06;;;;;;;12.58;9.88;;;;;;;30.01;47.77;100089.20;128401;1084;64147;-83
2021/08/02 05:06:32;;;;;;;15.27;10.07;;;;;;;30.02;47.65;100088.14;128416;1082;64247;-84
2021/08/02 05:08:59;;;;;;;12.93;10.23;;;;;;;30.02;47.25;100096.30;128457;1084;64107;-83
2021/08/02 05:11:25;;;;;;;13.60;10.30;;;;;;;30.02;47.21;100089.01;128393;1084;64150;-83
2021/08/02 05:13:51;;;;;;;12.70;9.85;;;;;;;30.03;47.68;100098.00;128424;1082;64136;-83
2021/08/02 05:16:18;;;;;;;12.67;9.80;;;;;;;30.03;47.55;100104.31;128485;1084;64137;-84
2021/08/02 05:18:44;;;;;;;13.13;10.40;;;;;;;30.04;47.16;100103.25;128472;1084;64584;-85
2021/08/02 05:21:19;;;;;;;13.37;10.57;;;;;;;30.04;47.60;100096.98;128501;1084;64166;-83
2021/08/02 05:23:45;;;;;;;13.57;9.97;;;;;;;30.04;47.18;100102.42;128517;1082;63896;-84
2021/08/02 05:26:12;;;;;;;14.00;10.30;;;;;;;30.05;47.47;100107.67;128386;1084;64887;-84
2021/08/02 05:28:38;;;;;;;13.00;10.43;;;;;;;30.06;47.49;100113.95;128860;1084;64089;-83
2021/08/02 05:31:04;;;;;;;12.77;10.37;;;;;;;30.07;47.43;100110.20;128456;1082;64096;-83
2021/08/02 05:33:31;;;;;;;14.17;10.60;;;;;;;30.07;47.17;100100.19;128478;1084;64275;-84
2021/08/02 05:35:57;;;;;;;13.97;10.63;;;;;;;30.07;47.02;100100.19;128450;1084;64120;-84
2021/08/02 05:38:29;;;;;;;13.20;10.03;;;;;;;30.08;47.49;100106.45;128468;1082;64141;-84
2021/08/02 05:40:56;;;;;;;13.27;10.03;;;;;;;30.09;46.98;100099.98;128476;1084;64272;-84
2021/08/02 05:43:23;;;;;;;13.03;10.73;;;;;;;30.10;47.33;100101.69;128320;1084;64096;-84
2021/08/02 05:45:50;;;;;;;16.58;10.88;;;;;;;30.11;47.35;100100.63;128861;1084;64594;-84
2021/08/02 05:48:16;;;;;;;12.43;10.43;;;;;;;30.12;47.11;100098.78;128431;1082;64247;-84
2021/08/02 05:50:43;;;;;;;14.47;9.73;;;;;;;30.13;46.91;100097.72;128447;1084;64121;-84
2021/08/02 05:53:09;;;;;;;13.97;10.60;;;;;;;30.13;46.96;100092.28;128489;1084;64223;-84
2021/08/02 05:55:35;;;;;;;14.83;10.30;;;;;;;30.15;46.90;100101.95;128442;1084;64178;-84
2021/08/02 05:58:02;;;;;;;14.27;10.77;;;;;;;30.15;47.51;100110.11;128454;1082;64126;-84
2021/08/02 06:00:29;;;;;;;14.03;10.87;;;;;;;30.17;47.15;100118.13;128474;1084;64150;-84
2021/08/02 06:02:55;;;;;;;14.23;10.40;;;;;;;30.17;47.25;100120.84;128314;1084;64249;-83
2021/08/02 06:05:22;;;;;;;12.33;11.03;;;;;;;30.18;47.00;100123.37;128412;1084;64185;-83
2021/08/02 06:07:48;;;;;;;18.10;10.50;;;;;;;30.19;46.82;100122.31;128753;1084;64304;-84
2021/08/02 06:10:14;;;;;;;14.70;9.83;;;;;;;30.21;46.87;100122.16;128331;1082;64345;-84
2021/08/02 06:12:40;;;;;;;16.20;10.70;;;;;;;30.21;47.46;100114.82;128334;1084;64181;-83
2021/08/02 06:15:07;;;;;;;14.23;10.13;;;;;;;30.23;47.01;100115.50;128388;1084;64156;-84
2021/08/02 06:17:33;;;;;;;16.07;10.77;;;;;;;30.23;47.16;100112.77;128464;1084;64783;-84
2021/08/02 06:20:03;;;;;;;16.00;10.73;;;;;;;30.25;46.82;100112.58;128387;1084;64131;-83
2021/08/02 06:22:29;;;;;;;15.37;10.83;;;;;;;30.26;46.99;100125.13;128440;1084;64093;-84
2021/08/02 06:24:55;;;;;;;11.70;9.87;;;;;;;30.26;47.29;100120.55;128468;1084;64127;-83
2021/08/02 06:27:22;;;;;;;13.23;10.70;;;;;;;30.28;46.75;100116.80;128416;1082;64176;-84
2021/08/02 06:29:49;;;;;;;12.43;10.57;;;;;;;30.29;46.76;100123.92;128327;1083;64128;-81
2021/08/02 06:32:16;;;;;;;14.30;11.03;;;;;;;30.29;46.90;100116.62;128371;1082;64278;-83
2021/08/02 06:34:43;;;;;;;15.10;10.70;;;;;;;30.29;46.71;100113.89;128294;1082;64099;-82
2021/08/02 06:37:09;;;;;;;12.93;10.93;;;;;;;30.31;47.13;100117.25;128439;1084;64135;-82
2021/08/02 06:39:35;;;;;;;13.87;10.20;;;;;;;30.33;46.74;100111.62;128414;1083;61639;-82
2021/08/02 06:42:01;;;;;;;13.93;11.07;;;;;;;30.33;46.71;100108.89;128389;1082;64264;-82
2021/08/02 06:44:28;;;;;;;13.07;10.70;;;;;;;30.35;47.11;100118.56;128376;1084;64198;-82
2021/08/02 06:46:54;;;;;;;16.03;11.57;;;;;;;30.35;46.98;100112.29;128379;1084;64143;-82
2021/08/02 06:49:20;;;;;;;19.50;12.73;;;;;;;30.37;46.67;100118.41;128277;1082;64186;-82
2021/08/02 06:51:47;;;;;;;16.80;13.53;;;;;;;30.37;46.56;100121.96;128352;1084;64096;-82
2021/08/02 06:54:13;;;;;;;19.27;13.63;;;;;;;30.37;46.58;100124.69;128352;1083;64368;-82
2021/08/02 06:56:39;;;;;;;22.07;14.37;;;;;;;30.38;46.57;100123.66;128319;1082;64179;-83
2021/08/02 06:59:05;;;;;;;13.93;11.77;;;;;;;30.39;46.60;100121.77;128307;1082;64279;-82
2021/08/02 07:01:32;;;;;;;18.40;13.95;;;;;;;30.40;46.50;100121.58;128404;1084;64147;-84
2021/08/02 07:03:59;;;;;;;14.90;11.33;;;;;;;30.40;46.75;100115.30;128454;1084;65023;-84
2021/08/02 07:06:26;;;;;;;21.57;14.50;;;;;;;30.41;46.65;100122.44;128462;1084;64246;-84
2021/08/02 07:08:57;;;;;;;21.97;15.60;;;;;;;30.41;46.45;100123.27;128442;1084;64153;-85
2021/08/02 07:11:38;;;;;;;16.20;12.10;;;;;;;30.40;46.45;100129.75;128817;1084;63952;-84
2021/08/02 07:14:04;;;;;;;14.57;10.90;;;;;;;30.41;46.86;100127.89;128444;1084;64150;-84
2021/08/02 07:16:31;;;;;;;13.83;10.50;;;;;;;30.41;46.84;100125.16;128757;1084;61651;-84
2021/08/02 07:18:57;;;;;;;14.47;11.27;;;;;;;30.41;46.85;100120.55;128854;1084;64157;-84
2021/08/02 07:21:25;;;;;;;13.73;10.37;;;;;;;30.41;46.51;100117.83;128403;1083;64163;-84
2021/08/02 07:23:51;;;;;;;19.40;13.88;;;;;;;30.41;46.40;100126.00;128425;1084;64067;-84
2021/08/02 07:26:18;;;;;;;18.77;13.53;;;;;;;30.42;46.51;100124.11;128480;1084;64317;-84
2021/08/02 07:28:44;;;;;;;21.43;14.37;;;;;;;30.42;46.53;100121.38;128516;1084;64224;-85
2021/08/02 07:31:11;;;;;;;21.60;13.87;;;;;;;30.41;46.30;100117.00;128444;1084;65106;-83
2021/08/02 07:33:39;;;;;;;17.10;12.13;;;;;;;30.41;46.81;100120.55;128789;1083;64108;-85
2021/08/02 07:36:07;;;;;;;15.55;11.13;;;;;;;30.41;46.36;100123.27;128443;1083;62171;-83
2021/08/02 07:38:36;;;;;;;17.20;14.13;;;;;;;30.42;46.43;100129.55;128388;1084;64092;-82
2021/08/02 07:41:02;;;;;;;21.33;13.80;;;;;;;30.41;46.25;100119.72;129063;1084;64251;-82
2021/08/02 07:43:28;;;;;;;13.33;11.20;;;;;;;30.43;46.48;100125.80;128341;1082;64204;-82
2021/08/02 07:45:54;;;;;;;16.40;11.50;;;;;;;30.42;46.68;100127.70;128385;1082;64269;-83
2021/08/02 07:48:20;;;;;;;13.20;11.10;;;;;;;30.42;46.41;100133.14;128395;1082;64677;-82
2021/08/02 07:50:48;;;;;;;15.53;11.03;;;;;;;30.44;46.96;100132.95;128366;1082;64275;-82
2021/08/02 07:53:14;;;;;;;14.33;10.53;;;;;;;30.45;46.92;100131.06;128743;1084;64147;-84
2021/08/02 07:55:40;;;;;;;18.73;13.43;;;;;;;30.45;46.34;100136.50;128475;1083;64241;-84
2021/08/02 07:58:10;;;;;;;19.93;13.97;;;;;;;30.47;46.31;100137.20;128411;1083;64279;-84
2021/08/02 08:00:37;;;;;;;13.33;11.53;;;;;;;30.47;46.78;100135.31;128687;1083;64783;-84
2021/08/02 08:03:03;;;;;;;15.23;11.67;;;;;;;30.47;46.92;100132.59;128284;1084;64169;-84
2021/08/02 08:05:30;;;;;;;12.63;10.80;;;;;;;30.47;46.32;100127.14;128875;1084;64516;-84
2021/08/02 08:07:56;;;;;;;19.13;13.60;;;;;;;30.47;46.72;100121.70;128893;1084;64182;-83
2021/08/02 08:10:31;;;;;;;19.47;14.00;;;;;;;30.48;46.32;100131.56;128444;1084;63932;-84
2021/08/02 08:12:58;;;;;;;13.25;11.15;;;;;;;30.49;46.27;100132.40;128473;1084;64124;-84
2021/08/02 08:15:25;;;;;;;18.60;13.60;;;;;;;30.48;46.75;100128.01;128444;1083;64365;-84
2021/08/02 08:17:55;;;;;;;16.77;13.57;;;;;;;30.47;46.26;100127.14;128910;1084;64217;-83
2021/08/02 08:20:23;;;;;;;19.23;13.20;;;;;;;30.48;46.68;100123.40;128447;1084;64125;-83
2021/08/02 08:22:49;;;;;;;17.50;14.13;;;;;;;30.50;46.63;100125.92;128416;1084;64137;-83
2021/08/02 08:25:16;;;;;;;20.67;14.10;;;;;;;30.52;46.05;100124.70;128451;1084;64265;-84
2021/08/02 08:27:42;;;;;;;19.77;14.97;;;;;;;30.53;46.01;100126.41;128885;1082;64232;-84
2021/08/02 08:30:09;;;;;;;26.73;14.83;;;;;;;30.54;46.44;100125.38;128408;1084;64141;-84
2021/08/02 08:32:36;;;;;;;19.80;14.17;;;;;;;30.54;46.05;100122.66;128432;1083;64297;-84
2021/08/02 08:35:02;;;;;;;21.70;13.57;;;;;;;30.54;46.20;100125.38;128717;1084;64255;-82
2021/08/02 08:37:28;;;;;;;16.37;12.80;;;;;;;30.54;46.43;100128.10;128434;1084;64123;-83
2021/08/02 08:39:55;;;;;;;17.77;12.20;;;;;;;30.53;46.50;100129.13;128453;1082;64096;-84
2021/08/02 08:42:21;;;;;;;17.70;13.07;;;;;;;30.54;46.45;100132.69;128382;1084;64227;-84
2021/08/02 08:44:47;;;;;;;22.67;13.33;;;;;;;30.53;45.86;100123.68;128464;1084;64128;-85
2021/08/02 08:47:16;;;;;;;20.10;14.15;;;;;;;30.55;45.93;100128.94;128861;1084;64278;-84
2021/08/02 08:49:46;;;;;;;25.97;13.80;;;;;;;30.55;45.84;100121.59;128467;1083;64176;-84
2021/08/02 08:52:14;;;;;;;20.57;13.93;;;;;;;30.56;45.66;100125.19;128455;1084;64444;-84
2021/08/02 08:54:43;;;;;;;20.43;13.80;;;;;;;30.58;45.80;100117.66;128434;1084;64149;-84
2021/08/02 08:57:11;;;;;;;19.30;13.20;;;;;;;30.58;46.00;100126.69;128481;1084;64185;-84
2021/08/02 08:59:51;;;;;;;19.00;13.30;;;;;;;30.58;45.58;100114.92;128885;1084;64128;-85
2021/08/02 09:02:25;;;;;;;16.83;12.10;;;;;;;30.57;45.45;100111.38;128491;1084;64096;-84
2021/08/02 09:04:55;;;;;;;20.47;12.10;;;;;;;30.58;45.71;100112.20;128437;1083;64230;-84
2021/08/02 09:07:39;;;;;;;20.23;12.90;;;;;;;30.59;45.88;100117.45;128516;1083;64957;-84
2021/08/02 09:10:09;;;;;;;23.63;13.03;;;;;;;30.62;45.16;100112.68;128488;1084;64221;-83
2021/08/02 09:12:36;;;;;;;21.27;13.37;;;;;;;30.62;45.08;100109.95;128499;1084;64281;-84
2021/08/02 09:15:06;;;;;;;18.53;12.00;;;;;;;30.62;45.07;100112.68;128513;1084;64096;-84
2021/08/02 09:17:36;;;;;;;17.10;12.40;;;;;;;30.61;45.10;100110.98;128473;1084;64262;-84
2021/08/02 09:20:05;;;;;;;18.57;11.83;;;;;;;30.62;45.46;100112.68;128379;1084;64163;-83
2021/08/02 09:22:35;;;;;;;;;;;;;;;30.61;45.02;100113.70;128462;1084;65059;-83
2021/08/02 09:25:13;;;;;;;17.07;11.90;;;;;;;30.61;45.07;100114.57;128469;1083;64224;-84
2021/08/02 09:27:40;;;;;;;17.50;12.63;;;;;;;30.63;45.36;100111.66;128865;1084;64124;-84
2021/08/02 09:30:24;;;;;;;17.50;11.80;;;;;;;30.63;44.80;100111.66;128859;1084;64239;-85
2021/08/02 09:32:55;;;;;;;14.73;11.27;;;;;;;30.64;44.74;100105.18;128487;1084;64172;-84
2021/08/02 09:35:40;;;;;;;19.80;12.10;;;;;;;30.63;44.67;100106.20;128970;1082;64135;-83
2021/08/02 09:38:09;;;;;;;19.70;11.37;;;;;;;30.63;44.53;100111.66;128926;1084;64297;-84
2021/08/02 09:40:46;;;;;;;;;;;;;;;30.63;44.48;100103.48;128543;1084;64166;-85
2021/08/02 09:43:17;;;;;;;19.07;11.50;;;;;;;30.62;45.08;100101.78;128454;1084;64275;-84
2021/08/02 09:45:54;;;;;;;16.87;10.90;;;;;;;30.62;44.79;100101.78;128462;1083;64125;-83
2021/08/02 09:48:24;;;;;;;17.73;10.60;;;;;;;30.63;44.20;100092.58;128443;1084;64131;-84
2021/08/02 09:50:50;;;;;;;19.43;10.80;;;;;;;30.64;44.04;100097.84;128448;1084;64381;-84
2021/08/02 09:53:18;;;;;;;15.17;10.20;;;;;;;30.64;44.05;100100.56;128429;1084;64128;-84
2021/08/02 09:55:46;;;;;;;16.63;10.73;;;;;;;30.65;44.05;100104.12;128592;1084;64275;-84
2021/08/02 09:58:18;;;;;;;14.80;9.78;;;;;;;30.63;44.35;100089.86;128509;1084;64176;-84
2021/08/02 10:00:45;;;;;;;16.73;10.27;;;;;;;30.63;44.22;100095.31;128497;1084;64128;-83
2021/08/02 10:03:11;;;;;;;14.97;10.37;;;;;;;30.63;44.54;100096.14;128846;1082;64172;-83
2021/08/02 10:05:39;;;;;;;21.10;11.03;;;;;;;30.61;44.53;100092.78;128439;1084;64151;-84
2021/08/02 10:08:09;;;;;;;15.27;9.87;;;;;;;30.61;44.13;100090.05;128491;1084;64178;-85
2021/08/02 10:10:39;;;;;;;15.30;9.47;;;;;;;30.62;44.20;100093.61;128465;1084;64131;-84
2021/08/02 10:13:07;;;;;;;20.57;10.17;;;;;;;30.63;44.32;100092.58;128466;1084;64128;-85
2021/08/02 10:15:33;;;;;;;12.10;9.57;;;;;;;30.62;44.13;100091.72;128414;1084;63945;-84
2021/08/02 10:18:01;;;;;;;13.70;10.30;;;;;;;30.62;43.99;100097.17;128488;1084;64237;-83
2021/08/02 10:20:29;;;;;;;15.37;10.00;;;;;;;30.61;43.85;100089.19;128465;1082;64083;-85
2021/08/02 10:22:58;;;;;;;19.10;10.03;;;;;;;30.59;43.84;100092.94;128454;1084;64153;-84
2021/08/02 10:25:38;;;;;;;15.18;9.25;;;;;;;30.59;43.75;100092.94;128434;1084;64184;-84
2021/08/02 10:28:15;;;;;;;16.07;10.23;;;;;;;30.60;44.11;100093.81;128340;1084;64139;-84
2021/08/02 10:30:43;;;;;;;16.63;9.33;;;;;;;30.59;43.71;100073.05;128823;1084;63968;-83
2021/08/02 10:33:09;;;;;;;16.27;8.90;;;;;;;30.59;43.65;100078.49;128470;1084;64093;-84
2021/08/02 10:35:40;;;;;;;14.87;8.80;;;;;;;30.60;43.35;100077.47;128394;1083;64246;-83
2021/08/02 10:38:15;;;;;;;20.07;9.50;;;;;;;30.60;43.31;100077.47;128934;1083;64150;-84
2021/08/02 10:40:56;;;;;;;15.20;8.80;;;;;;;30.60;43.27;100074.74;128824;1084;64184;-84
2021/08/02 10:43:37;;;;;;;14.77;9.50;;;;;;;30.60;43.67;100072.02;128452;1083;62961;-84
2021/08/02 10:46:25;;;;;;;16.10;9.10;;;;;;;30.58;43.37;100071.34;128397;1084;64124;-84
2021/08/02 10:48:56;;;;;;;13.80;10.83;;;;;;;30.57;43.72;100073.24;128913;1082;64127;-84
2021/08/02 10:51:23;;;;;;;13.57;9.50;;;;;;;30.57;44.26;100070.52;128421;1084;64095;-84
2021/08/02 10:53:57;;;;;;;16.23;9.53;;;;;;;30.57;43.83;100069.69;128396;1084;64111;-84
2021/08/02 10:56:29;;;;;;;14.03;9.77;;;;;;;30.56;44.17;100057.09;128488;1084;64248;-84
2021/08/02 10:58:59;;;;;;;14.67;9.37;;;;;;;30.55;44.11;100060.84;128496;1084;64147;-84
2021/08/02 11:01:27;;;;;;;13.83;10.10;;;;;;;30.55;44.23;100055.41;128480;1083;64610;-84
2021/08/02 11:03:54;;;;;;;14.13;9.77;;;;;;;30.54;44.83;100054.56;128367;1084;64108;-85
2021/08/02 11:06:21;;;;;;;13.93;9.67;;;;;;;30.53;44.97;100052.88;128500;1083;64067;-84
2021/08/02 11:08:55;;;;;;;12.80;9.67;;;;;;;30.53;44.68;100043.84;128928;1082;64266;-84
2021/08/02 11:11:31;;;;;;;13.53;10.10;;;;;;;30.53;44.41;100043.84;128485;1084;64128;-84
2021/08/02 11:14:06;;;;;;;14.33;9.57;;;;;;;30.52;44.64;100039.45;128532;1082;64138;-84
2021/08/02 11:16:51;;;;;;;13.07;9.53;;;;;;;30.52;45.11;100044.90;128463;1084;64151;-84
2021/08/02 11:19:28;;;;;;;12.53;9.00;;;;;;;30.51;44.49;100038.59;128902;1083;65182;-85